Time;durP1;ratioP1;P1;durP2;ratioP2;P2;SDS_P1;SDS_P2;PMS_P1;PMS_P2;Temp;Humidity;BMP_temperature;BMP_pressure;BME280_temperature;BME280_humidity;BME280_pressure;Samples;Min_cycle;Max_cycle;Signal;HPM_P1;HPM_P2
2023/06/24 00:00:21;;;;;;;14.13;12.77;;;;;;;15.78;100.00;100623.28;10506417;28;20040;-67
2023/06/24 00:05:22;;;;;;;13.02;12.05;;;;;;;15.96;100.00;100626.88;10505967;28;20071;-67
2023/06/24 00:10:24;;;;;;;14.13;11.57;;;;;;;16.11;100.00;100630.63;10505356;28;20119;-67
2023/06/24 00:15:26;;;;;;;14.50;13.38;;;;;;;15.98;100.00;100617.09;10505124;28;20472;-67
2023/06/24 00:20:28;;;;;;;19.58;13.40;;;;;;;16.08;100.00;100614.88;10505720;28;20083;-68
2023/06/24 00:25:30;;;;;;;15.13;13.82;;;;;;;16.06;100.00;100609.63;10504968;28;20037;-68
2023/06/24 00:30:31;;;;;;;14.23;13.02;;;;;;;16.10;100.00;100600.59;10505082;28;20048;-68
2023/06/24 00:35:33;;;;;;;16.15;14.95;;;;;;;16.02;100.00;100599.22;10486509;28;20060;-67
2023/06/24 00:40:35;;;;;;;16.80;15.35;;;;;;;16.08;100.00;100591.88;10485784;28;20049;-66
2023/06/24 00:45:38;;;;;;;16.15;14.85;;;;;;;16.32;100.00;100596.97;10486914;28;20131;-67
2023/06/24 00:50:45;;;;;;;17.40;16.00;;;;;;;16.15;100.00;100595.94;10486082;28;20052;-67
2023/06/24 00:55:47;;;;;;;18.08;16.30;;;;;;;16.27;100.00;100593.69;10503496;28;20094;-67
2023/06/24 01:00:57;;;;;;;20.13;17.90;;;;;;;16.15;100.00;100597.75;10485726;28;20102;-66
2023/06/24 01:05:59;;;;;;;19.13;17.48;;;;;;;16.29;100.00;100589.16;10503430;28;20037;-67
2023/06/24 01:11:01;;;;;;;20.48;18.40;;;;;;;16.17;100.00;100587.09;10503177;28;20052;-67
2023/06/24 01:16:10;;;;;;;22.13;20.20;;;;;;;16.23;100.00;100586.78;10502795;28;20068;-67
2023/06/24 01:21:27;;;;;;;21.02;19.02;;;;;;;16.46;100.00;100588.38;10484187;28;20049;-67
2023/06/24 01:26:48;;;;;;;20.52;18.60;;;;;;;16.40;100.00;100586.88;10502373;28;20123;-67
2023/06/24 01:32:02;;;;;;;20.63;18.83;;;;;;;16.38;100.00;100589.59;10483976;28;20131;-67
2023/06/24 01:37:19;;;;;;;20.92;18.83;;;;;;;16.36;100.00;100599.41;10502356;28;20116;-67
2023/06/24 01:42:22;;;;;;;20.48;18.92;;;;;;;16.38;100.00;100599.34;10501959;28;20127;-67
2023/06/24 01:47:27;;;;;;;23.02;20.60;;;;;;;16.35;100.00;100595.03;10501359;28;20044;-67
2023/06/24 01:52:32;;;;;;;;;;;;;;;16.23;100.00;100597.41;10501365;28;20094;-67
2023/06/24 01:57:34;;;;;;;21.17;18.83;;;;;;;16.68;100.00;100596.16;10501434;28;19924;-66
2023/06/24 02:02:38;;;;;;;21.10;19.17;;;;;;;16.47;100.00;100592.72;10483334;28;20044;-67
2023/06/24 02:07:47;;;;;;;22.65;20.88;;;;;;;16.43;100.00;100596.50;10500601;28;20064;-67
2023/06/24 02:12:53;;;;;;;23.08;20.92;;;;;;;16.45;100.00;100605.22;10483172;28;20067;-67
2023/06/24 02:17:56;;;;;;;23.53;21.53;;;;;;;16.48;100.00;100600.63;10482321;28;20060;-68
2023/06/24 02:22:59;;;;;;;24.50;22.08;;;;;;;16.67;100.00;100592.66;10499611;28;20656;-66
2023/06/24 02:28:01;;;;;;;24.58;21.92;;;;;;;16.61;100.00;100593.81;10500452;28;20462;-67
2023/06/24 02:33:04;;;;;;;23.52;21.33;;;;;;;16.50;100.00;100592.59;10500052;28;20063;-67
2023/06/24 02:38:06;;;;;;;25.60;21.67;;;;;;;16.59;100.00;100593.00;10499762;28;20559;-66
2023/06/24 02:43:08;;;;;;;26.35;23.73;;;;;;;16.32;100.00;100591.66;10481419;28;20040;-67
2023/06/24 02:48:14;;;;;;;26.30;23.52;;;;;;;16.26;100.00;100603.44;10499196;28;20048;-67
2023/06/24 02:53:17;;;;;;;25.97;23.93;;;;;;;16.34;100.00;100606.59;10499459;28;20045;-67
2023/06/24 02:58:21;;;;;;;22.67;20.83;;;;;;;16.38;100.00;100607.31;10481597;28;20513;-67
2023/06/24 03:03:35;;;;;;;22.58;20.75;;;;;;;16.53;100.00;100609.25;10480830;28;20509;-67
2023/06/24 03:08:43;;;;;;;21.85;20.08;;;;;;;16.55;100.00;100604.69;10465160;28;20062;-67
2023/06/24 03:13:45;;;;;;;23.48;20.38;;;;;;;16.64;100.00;100603.41;10480581;28;20043;-66
2023/06/24 03:18:54;;;;;;;24.90;18.73;;;;;;;16.64;100.00;100608.72;10481347;28;20522;-67
2023/06/24 03:23:58;;;;;;;19.98;18.33;;;;;;;16.41;100.00;100607.16;10480387;28;20072;-67
2023/06/24 03:29:01;;;;;;;21.13;19.15;;;;;;;16.23;100.00;100603.56;10480522;28;20053;-67
2023/06/24 03:34:05;;;;;;;20.52;18.50;;;;;;;16.30;100.00;100609.47;10482620;28;20052;-67
2023/06/24 03:39:07;;;;;;;22.60;17.73;;;;;;;16.33;100.00;100612.81;10480918;28;20452;-67
2023/06/24 03:44:09;;;;;;;19.92;18.08;;;;;;;16.00;100.00;100607.25;10480229;28;20052;-66
2023/06/24 03:49:11;;;;;;;19.08;17.55;;;;;;;16.22;100.00;100620.41;10480445;28;20068;-67
2023/06/24 03:54:13;;;;;;;18.55;16.80;;;;;;;16.24;100.00;100634.47;10480315;28;20040;-66
2023/06/24 03:59:15;;;;;;;18.50;16.60;;;;;;;16.09;100.00;100638.66;10480423;28;20053;-67
2023/06/24 04:04:17;;;;;;;17.17;15.57;;;;;;;16.26;100.00;100645.03;10480537;28;20076;-67
2023/06/24 04:09:19;;;;;;;16.73;15.18;;;;;;;16.28;100.00;100645.78;10479714;28;20094;-67
2023/06/24 04:14:21;;;;;;;17.70;16.10;;;;;;;16.27;100.00;100657.34;10480091;28;20119;-66
2023/06/24 04:19:23;;;;;;;16.08;14.65;;;;;;;16.30;100.00;100654.56;10486650;28;20140;-67
2023/06/24 04:24:25;;;;;;;15.60;14.27;;;;;;;16.53;100.00;100675.59;10507002;28;20076;-67
2023/06/24 04:29:27;;;;;;;14.10;12.90;;;;;;;16.79;100.00;100677.06;10504842;28;20075;-67
2023/06/24 04:34:30;;;;;;;22.13;14.55;;;;;;;16.74;100.00;100676.41;10487365;28;20094;-67
2023/06/24 04:39:31;;;;;;;13.90;12.55;;;;;;;16.86;100.00;100672.31;10505112;28;20067;-67
2023/06/24 04:44:33;;;;;;;16.90;15.57;;;;;;;16.85;100.00;100686.53;10504212;28;20638;-68
2023/06/24 04:49:35;;;;;;;17.77;16.20;;;;;;;16.80;100.00;100696.50;10504522;28;20468;-67
2023/06/24 04:54:37;;;;;;;16.60;15.25;;;;;;;16.96;100.00;100702.81;10486339;28;20547;-67
2023/06/24 04:59:39;;;;;;;18.67;16.92;;;;;;;16.93;100.00;100700.28;10485885;28;20473;-67
2023/06/24 05:04:41;;;;;;;21.50;19.33;;;;;;;16.95;100.00;100697.56;10484860;28;20144;-67
2023/06/24 05:09:43;;;;;;;21.23;19.45;;;;;;;16.95;100.00;100708.19;10503130;28;20425;-67
2023/06/24 05:14:49;;;;;;;23.20;21.38;;;;;;;16.99;100.00;100715.06;10517420;22;20432;-70
2023/06/24 05:19:51;;;;;;;24.77;22.67;;;;;;;16.87;100.00;100717.38;10504934;28;20040;-71
2023/06/24 05:24:53;;;;;;;27.67;25.25;;;;;;;16.80;100.00;100710.63;10486010;28;20040;-71
2023/06/24 05:29:55;;;;;;;26.05;23.52;;;;;;;16.88;100.00;100707.63;10502603;28;20086;-71
2023/06/24 05:34:56;;;;;;;26.42;24.10;;;;;;;16.85;100.00;100713.94;10503860;28;20043;-71
2023/06/24 05:40:01;;;;;;;26.33;24.02;;;;;;;17.03;100.00;100709.53;10502320;28;20102;-71
2023/06/24 05:45:03;;;;;;;27.75;25.40;;;;;;;16.74;100.00;100705.63;10503144;28;20055;-71
2023/06/24 05:50:05;;;;;;;28.67;26.25;;;;;;;16.64;100.00;100707.81;10503158;28;20170;-71
2023/06/24 05:55:07;;;;;;;29.67;26.73;;;;;;;16.77;100.00;100720.53;10503212;28;20040;-71
2023/06/24 06:00:10;;;;;;;33.25;28.20;;;;;;;16.50;100.00;100720.84;10502371;28;20063;-71
2023/06/24 06:05:16;;;;;;;32.50;27.02;;;;;;;16.59;100.00;100731.03;10503520;28;20032;-71
2023/06/24 06:10:18;;;;;;;26.33;23.65;;;;;;;16.73;100.00;100735.72;10502961;28;20090;-71
2023/06/24 06:15:20;;;;;;;26.15;23.60;;;;;;;16.79;100.00;100739.91;10502185;28;20551;-71
2023/06/24 06:20:21;;;;;;;28.08;25.10;;;;;;;16.53;100.00;100739.28;10502785;28;20060;-71
2023/06/24 06:25:23;;;;;;;26.05;23.65;;;;;;;16.49;100.00;100753.63;10485004;28;20117;-71
2023/06/24 06:30:25;;;;;;;27.10;24.27;;;;;;;16.42;100.00;100749.50;10501663;28;20097;-71
2023/06/24 06:35:27;;;;;;;24.25;22.33;;;;;;;16.29;100.00;100746.56;10501784;28;20086;-72
2023/06/24 06:40:28;;;;;;;32.88;23.45;;;;;;;16.32;100.00;100749.06;10500126;28;20084;-71
2023/06/24 06:45:30;;;;;;;23.58;21.10;;;;;;;16.50;100.00;100744.72;10501916;28;20036;-71
2023/06/24 06:50:34;;;;;;;22.60;20.38;;;;;;;16.61;100.00;100749.56;10502981;28;20412;-71
2023/06/24 06:55:37;;;;;;;24.02;21.88;;;;;;;16.31;100.00;100754.44;10502438;28;20044;-71
2023/06/24 07:00:39;;;;;;;22.27;20.20;;;;;;;16.63;100.00;100748.53;10502177;28;20048;-71
2023/06/24 07:05:41;;;;;;;20.42;18.52;;;;;;;16.70;100.00;100754.44;10501518;28;20036;-71
2023/06/24 07:10:43;;;;;;;19.50;17.60;;;;;;;16.59;100.00;100751.41;10499845;28;20127;-72
2023/06/24 07:15:45;;;;;;;18.45;17.15;;;;;;;16.81;100.00;100748.66;10501270;28;20539;-70
2023/06/24 07:20:46;;;;;;;16.00;14.40;;;;;;;16.97;100.00;100752.34;10501212;28;20105;-71
2023/06/24 07:25:48;;;;;;;15.55;14.07;;;;;;;17.09;100.00;100757.09;10499954;28;20046;-71
2023/06/24 07:30:50;;;;;;;12.82;11.90;;;;;;;17.36;100.00;100752.25;10501518;28;20454;-72
2023/06/24 07:35:52;;;;;;;12.80;11.57;;;;;;;17.57;100.00;100749.44;10500279;28;20037;-71
2023/06/24 07:40:53;;;;;;;13.85;11.75;;;;;;;18.14;100.00;100761.63;10501781;28;20049;-70
2023/06/24 07:45:55;;;;;;;13.68;12.60;;;;;;;17.75;100.00;100761.88;10500296;28;20120;-72
2023/06/24 07:50:58;;;;;;;13.38;10.57;;;;;;;17.71;100.00;100764.72;10500616;28;20079;-71
2023/06/24 07:55:59;;;;;;;12.23;11.13;;;;;;;17.81;100.00;100766.03;10508112;28;20047;-71
2023/06/24 08:01:01;;;;;;;12.48;11.57;;;;;;;17.91;100.00;100756.63;10507543;28;20094;-72
2023/06/24 08:06:03;;;;;;;12.35;11.45;;;;;;;17.81;96.38;100761.56;10508475;28;20048;-72
2023/06/24 08:11:05;;;;;;;9.75;9.15;;;;;;;18.26;91.68;100760.16;10507346;28;20083;-72
2023/06/24 08:16:07;;;;;;;8.57;7.65;;;;;;;18.46;86.31;100769.78;10505893;28;20040;-72
2023/06/24 08:21:08;;;;;;;8.63;7.82;;;;;;;18.67;87.46;100771.25;10508794;28;20048;-71
2023/06/24 08:32:07;;;;;;;7.22;6.53;;;;;;;18.86;76.30;100771.19;10509070;28;20048;-72
2023/06/24 08:37:09;;;;;;;6.90;6.22;;;;;;;19.55;77.67;100761.97;10505814;28;20147;-73
2023/06/24 08:42:12;;;;;;;7.35;6.57;;;;;;;19.80;75.44;100771.28;10506033;28;20048;-72
2023/06/24 08:47:16;;;;;;;7.57;6.90;;;;;;;19.78;75.29;100783.81;10506803;28;20044;-72
2023/06/24 08:52:18;;;;;;;7.25;5.40;;;;;;;20.39;69.81;100797.06;10503782;28;20049;-72
2023/06/24 08:57:20;;;;;;;4.72;4.15;;;;;;;20.69;60.28;100790.84;10506513;28;20128;-71
2023/06/24 09:02:22;;;;;;;5.60;5.00;;;;;;;20.41;64.39;100787.16;10470911;28;20494;-74
2023/06/24 09:07:28;;;;;;;5.43;4.95;;;;;;;20.14;69.17;100789.69;10464664;28;20039;-71
2023/06/24 09:12:34;;;;;;;5.10;4.68;;;;;;;20.37;63.88;100782.97;10506082;28;20045;-73
2023/06/24 09:17:44;;;;;;;4.95;4.32;;;;;;;21.50;58.22;100787.50;10488892;28;20041;-72
2023/06/24 09:22:46;;;;;;;5.25;4.78;;;;;;;21.68;60.76;100783.63;10507484;28;20119;-72
2023/06/24 09:27:52;;;;;;;4.38;4.03;;;;;;;22.14;54.55;100793.97;10505546;28;20062;-71
2023/06/24 09:32:55;;;;;;;6.60;5.60;;;;;;;22.24;53.21;100796.88;10505409;28;20044;-71
2023/06/24 09:37:59;;;;;;;3.90;3.53;;;;;;;21.63;55.58;100791.94;10504200;28;20037;-72
2023/06/24 09:43:01;;;;;;;4.88;4.13;;;;;;;21.32;58.21;100790.41;10502453;28;20573;-71
2023/06/24 09:48:03;;;;;;;4.82;4.30;;;;;;;21.31;55.22;100785.16;10504695;28;20041;-71
2023/06/24 09:53:06;;;;;;;4.20;3.90;;;;;;;21.91;52.19;100784.75;10502736;28;20078;-71
2023/06/24 09:58:08;;;;;;;5.78;3.70;;;;;;;21.60;52.28;100783.25;10503811;28;20123;-71
2023/06/24 10:03:11;;;;;;;4.35;4.05;;;;;;;21.67;59.08;100776.56;10504141;28;20044;-72
2023/06/24 10:08:13;;;;;;;4.45;4.05;;;;;;;22.38;53.32;100772.66;10504300;28;20044;-71
2023/06/24 10:13:15;;;;;;;4.53;4.13;;;;;;;21.76;56.17;100783.97;10503528;28;20051;-72
2023/06/24 10:18:31;;;;;;;7.18;4.32;;;;;;;21.42;59.10;100790.66;10502639;28;20045;-73
2023/06/24 10:23:39;;;;;;;5.10;4.60;;;;;;;21.37;59.17;100792.78;10503010;28;20075;-72
2023/06/24 10:29:06;;;;;;;4.10;3.80;;;;;;;22.05;55.56;100781.19;10501259;28;20041;-72
2023/06/24 10:34:52;;;;;;;5.22;3.80;;;;;;;22.18;55.26;100784.75;10502785;28;20478;-72
2023/06/24 10:39:57;;;;;;;5.95;3.35;;;;;;;22.82;50.72;100793.66;10499677;28;20090;-73
2023/06/24 10:45:13;;;;;;;3.17;2.78;;;;;;;23.12;52.13;100790.66;10501896;28;20067;-72
2023/06/24 10:50:20;;;;;;;5.28;3.17;;;;;;;22.35;50.35;100787.13;10502349;28;20051;-72
2023/06/24 10:55:26;;;;;;;4.63;3.45;;;;;;;23.15;50.97;100782.41;10503122;28;20059;-73
2023/06/24 11:00:28;;;;;;;3.28;3.03;;;;;;;23.84;48.10;100763.03;10501937;28;20465;-73
2023/06/24 11:05:31;;;;;;;3.33;3.13;;;;;;;23.44;49.47;100768.66;10502437;28;20119;-73
2023/06/24 11:10:33;;;;;;;4.43;3.58;;;;;;;23.29;51.75;100762.59;10502834;28;20040;-75
2023/06/24 11:15:35;;;;;;;5.57;3.85;;;;;;;22.78;53.28;100754.63;10514490;22;20048;-68
2023/06/24 11:20:38;;;;;;;5.30;4.80;;;;;;;22.52;54.73;100756.47;10497155;28;20446;-68
2023/06/24 11:25:42;;;;;;;4.60;4.20;;;;;;;21.81;56.04;100738.16;10499356;28;20048;-68
2023/06/24 11:30:44;;;;;;;4.60;4.13;;;;;;;22.00;53.09;100745.81;10506011;28;20123;-69
2023/06/24 11:35:46;;;;;;;4.90;4.38;;;;;;;23.24;51.23;100751.38;10505801;28;20067;-68
2023/06/24 11:40:48;;;;;;;8.07;3.83;;;;;;;23.71;48.03;100733.56;10505446;28;20098;-68
2023/06/24 11:45:50;;;;;;;4.78;3.63;;;;;;;24.25;46.96;100742.88;10505236;28;20041;-68
2023/06/24 11:50:55;;;;;;;3.83;3.40;;;;;;;23.92;50.72;100739.13;10488928;28;20494;-68
2023/06/24 11:55:57;;;;;;;3.50;3.20;;;;;;;23.66;49.70;100738.44;10505536;28;20408;-68
2023/06/24 12:00:59;;;;;;;3.92;3.63;;;;;;;23.92;48.36;100736.47;10487333;28;20040;-68
2023/06/24 12:06:01;;;;;;;3.20;2.85;;;;;;;24.60;48.84;100729.38;10504396;28;20107;-68
2023/06/24 12:11:03;;;;;;;3.92;3.58;;;;;;;23.40;50.32;100718.88;10504659;28;20554;-68
2023/06/24 12:16:05;;;;;;;4.55;3.58;;;;;;;22.70;50.59;100721.31;10504343;28;20052;-68
2023/06/24 12:21:07;;;;;;;3.78;3.47;;;;;;;23.34;48.31;100719.34;10503997;28;20135;-68
2023/06/24 12:26:09;;;;;;;3.38;3.15;;;;;;;24.44;46.93;100712.75;10503848;28;20128;-67
2023/06/24 12:31:11;;;;;;;3.70;3.20;;;;;;;24.96;48.04;100713.97;10503248;28;20383;-67
2023/06/24 12:36:13;;;;;;;3.72;3.42;;;;;;;24.93;47.27;100709.72;10502457;28;20494;-67
2023/06/24 12:41:15;;;;;;;3.30;3.05;;;;;;;24.98;47.74;100701.25;10485126;28;20467;-67
2023/06/24 12:46:16;;;;;;;4.03;3.63;;;;;;;25.21;44.34;100699.41;10502872;28;20067;-67
2023/06/24 12:51:18;;;;;;;4.03;3.63;;;;;;;24.80;45.04;100698.22;10502652;28;20048;-67
2023/06/24 12:56:20;;;;;;;4.13;3.33;;;;;;;24.89;45.45;100700.19;10503226;28;20037;-68
2023/06/24 13:01:22;;;;;;;3.53;3.33;;;;;;;24.96;44.62;100687.91;10503343;28;20533;-67
2023/06/24 13:06:24;;;;;;;4.03;3.25;;;;;;;24.73;43.94;100686.25;10501557;28;20044;-68
2023/06/24 13:11:26;;;;;;;3.67;3.35;;;;;;;24.71;47.07;100694.44;10501888;28;20051;-68
2023/06/24 13:16:28;;;;;;;3.47;3.17;;;;;;;24.56;46.54;100685.75;10500438;28;20048;-67
2023/06/24 13:21:30;;;;;;;3.58;3.30;;;;;;;24.09;48.06;100687.69;10483713;28;20486;-68
2023/06/24 13:26:31;;;;;;;3.83;3.42;;;;;;;24.28;47.15;100684.41;10501082;28;20390;-68
2023/06/24 13:31:33;;;;;;;3.20;2.90;;;;;;;24.54;48.21;100682.38;10499793;28;20044;-68
2023/06/24 13:36:37;;;;;;;4.20;2.63;;;;;;;24.35;45.66;100682.09;10482770;28;20048;-68
2023/06/24 13:41:39;;;;;;;3.30;2.70;;;;;;;24.89;45.96;100689.41;10500809;28;20048;-67
2023/06/24 13:46:41;;;;;;;3.17;2.95;;;;;;;25.61;43.21;100678.09;10499056;28;20482;-68
2023/06/24 13:51:43;;;;;;;2.70;2.50;;;;;;;25.51;43.53;100683.41;10498286;28;20040;-68
2023/06/24 13:56:45;;;;;;;3.08;2.65;;;;;;;25.31;44.84;100674.28;10499626;28;20068;-68
2023/06/24 14:01:47;;;;;;;2.83;2.58;;;;;;;24.94;45.41;100662.16;10481687;28;20048;-68
2023/06/24 14:06:49;;;;;;;2.70;2.50;;;;;;;25.01;46.47;100655.25;10499454;28;20453;-69
2023/06/24 14:11:51;;;;;;;2.75;2.55;;;;;;;25.53;44.67;100654.50;10492695;28;20437;-68
2023/06/24 14:16:53;;;;;;;2.80;2.60;;;;;;;25.07;46.03;100647.56;10457620;28;20029;-68
2023/06/24 14:21:55;;;;;;;2.33;2.13;;;;;;;25.33;45.20;100647.28;10440099;28;20045;-68
2023/06/24 14:26:57;;;;;;;3.08;2.47;;;;;;;25.49;43.95;100647.66;10457183;28;20091;-68
2023/06/24 14:31:59;;;;;;;3.42;2.40;;;;;;;25.60;43.26;100641.38;10457769;28;20041;-72
2023/06/24 14:37:00;;;;;;;2.92;2.67;;;;;;;25.62;43.18;100639.41;10457153;28;20041;-71
2023/06/24 14:42:03;;;;;;;3.10;2.30;;;;;;;25.16;44.78;100632.53;10457570;28;20045;-71
2023/06/24 14:47:05;;;;;;;2.58;2.38;;;;;;;25.33;46.34;100618.50;10456840;28;20041;-71
2023/06/24 14:52:07;;;;;;;2.67;2.45;;;;;;;25.84;44.95;100624.97;10456898;28;20037;-71
2023/06/24 14:57:08;;;;;;;6.70;3.08;;;;;;;26.00;43.54;100617.28;10456660;28;20048;-71
2023/06/24 15:02:10;;;;;;;3.25;2.30;;;;;;;25.74;44.37;100613.28;10456014;28;20071;-71
2023/06/24 15:07:12;;;;;;;2.83;2.40;;;;;;;25.65;44.55;100602.31;10456107;28;20037;-71
2023/06/24 15:12:14;;;;;;;3.58;2.50;;;;;;;25.80;43.87;100605.53;10456172;28;20391;-71
2023/06/24 15:17:16;;;;;;;3.20;2.58;;;;;;;26.20;42.43;100598.50;10455960;28;20041;-71
2023/06/24 15:22:18;;;;;;;3.70;2.80;;;;;;;26.72;40.56;100599.28;10456010;28;20068;-71
2023/06/24 15:27:19;;;;;;;2.78;2.58;;;;;;;25.86;42.84;100598.78;10455920;28;20045;-70
2023/06/24 15:32:21;;;;;;;3.33;2.28;;;;;;;26.64;41.85;100581.09;10455675;28;20041;-70
2023/06/24 15:37:23;;;;;;;2.47;2.20;;;;;;;26.47;42.26;100576.34;10455693;28;20095;-70
2023/06/24 15:42:25;;;;;;;3.35;2.17;;;;;;;27.39;41.28;100579.59;10455795;28;20471;-70
2023/06/24 15:47:27;;;;;;;2.80;2.60;;;;;;;27.48;40.60;100573.31;10455584;28;20045;-70
2023/06/24 15:52:29;;;;;;;3.50;2.60;;;;;;;26.57;43.50;100564.63;10455593;28;20076;-69
2023/06/24 15:57:31;;;;;;;3.90;2.60;;;;;;;27.30;39.69;100561.56;10455182;28;20120;-69
2023/06/24 16:02:33;;;;;;;2.53;2.33;;;;;;;26.86;41.52;100564.66;10455709;28;20498;-69
2023/06/24 16:07:35;;;;;;;3.78;2.40;;;;;;;27.15;38.17;100563.84;10454979;28;20490;-69
2023/06/24 16:12:37;;;;;;;2.95;2.70;;;;;;;26.62;38.99;100565.06;10458314;28;20041;-70
2023/06/24 16:17:38;;;;;;;3.45;2.58;;;;;;;26.58;38.17;100554.69;10462549;28;20037;-71
2023/06/24 16:22:40;;;;;;;4.03;2.30;;;;;;;25.75;40.14;100564.66;10462943;28;20129;-70
2023/06/24 16:27:42;;;;;;;2.75;2.55;;;;;;;25.42;40.44;100552.28;10462640;28;20390;-70
2023/06/24 16:32:44;;;;;;;4.55;2.90;;;;;;;25.44;40.18;100554.84;10461931;28;20049;-70
2023/06/24 16:37:45;;;;;;;3.13;2.50;;;;;;;24.83;40.71;100536.63;10463566;28;20041;-70
2023/06/24 16:42:47;;;;;;;2.35;2.15;;;;;;;25.15;39.75;100548.28;10462209;28;20090;-71
2023/06/24 16:47:49;;;;;;;5.78;3.05;;;;;;;24.78;40.24;100557.69;10461502;28;20562;-71
2023/06/24 16:52:51;;;;;;;3.30;3.10;;;;;;;24.79;39.72;100554.00;10443377;28;20049;-71
2023/06/24 16:57:53;;;;;;;3.30;3.05;;;;;;;24.60;40.69;100557.38;10460881;28;20033;-71
2023/06/24 17:02:54;;;;;;;5.65;5.03;;;;;;;24.58;41.46;100557.50;10460608;28;20049;-71
2023/06/24 17:07:56;;;;;;;3.47;3.25;;;;;;;24.41;41.90;100553.50;10460991;28;20065;-71
2023/06/24 17:12:58;;;;;;;3.75;2.80;;;;;;;24.21;43.22;100562.28;10460240;28;20506;-71
2023/06/24 17:18:00;;;;;;;2.97;2.70;;;;;;;24.17;42.26;100556.31;10513136;22;20048;-72
2023/06/24 17:23:02;;;;;;;4.05;3.75;;;;;;;24.23;42.39;100554.97;10504749;28;20044;-73
2023/06/24 17:28:04;;;;;;;4.00;3.70;;;;;;;24.01;43.31;100555.81;10503638;28;20121;-72
2023/06/24 17:33:06;;;;;;;4.82;3.50;;;;;;;23.81;44.35;100543.97;10486820;28;20044;-72
2023/06/24 17:38:08;;;;;;;4.32;4.03;;;;;;;23.59;44.98;100552.81;10503448;28;20541;-72
2023/06/24 17:43:10;;;;;;;3.78;3.20;;;;;;;23.65;45.37;100554.22;10504806;28;20052;-72
2023/06/24 17:48:11;;;;;;;4.40;3.67;;;;;;;23.71;45.51;100543.00;10485508;28;20062;-73
2023/06/24 17:53:13;;;;;;;3.35;3.05;;;;;;;23.54;46.14;100549.63;10502914;28;20581;-73
2023/06/24 17:58:15;;;;;;;3.25;3.05;;;;;;;23.19;47.57;100548.81;10503383;28;20040;-74
2023/06/24 18:03:17;;;;;;;3.45;3.10;;;;;;;23.26;48.32;100547.41;10504344;28;20520;-74
2023/06/24 18:08:20;;;;;;;3.85;3.60;;;;;;;23.12;48.05;100546.63;10485188;28;20104;-74
2023/06/24 18:13:22;;;;;;;3.83;3.55;;;;;;;23.00;48.70;100547.53;10485282;28;20493;-74
2023/06/24 18:18:23;;;;;;;4.45;4.15;;;;;;;23.16;48.11;100548.09;10503721;28;20054;-74
2023/06/24 18:23:25;;;;;;;5.18;3.80;;;;;;;22.76;49.88;100536.81;10502161;28;20040;-74
2023/06/24 18:28:27;;;;;;;4.03;3.72;;;;;;;22.55;50.66;100538.41;10483530;28;20476;-74
2023/06/24 18:33:29;;;;;;;3.70;3.40;;;;;;;22.44;51.24;100541.00;10500960;28;20123;-75
2023/06/24 18:38:31;;;;;;;4.40;4.05;;;;;;;22.41;52.24;100544.78;10467402;28;20527;-74
2023/06/24 18:43:33;;;;;;;5.00;4.60;;;;;;;22.26;52.88;100535.16;10484778;28;20079;-75
2023/06/24 18:48:37;;;;;;;5.57;5.07;;;;;;;22.22;53.43;100531.84;10483522;28;20042;-75
2023/06/24 18:53:39;;;;;;;3.45;3.10;;;;;;;22.02;54.56;100545.78;10483700;28;20127;-74
2023/06/24 18:58:41;;;;;;;3.67;3.38;;;;;;;21.99;54.22;100538.81;10482086;28;20166;-74
2023/06/24 19:03:44;;;;;;;4.32;3.92;;;;;;;21.85;56.72;100537.13;10500453;28;20072;-74
2023/06/24 19:08:52;;;;;;;4.65;3.13;;;;;;;21.79;55.46;100534.06;10500790;28;20043;-74
2023/06/24 19:13:53;;;;;;;3.40;3.10;;;;;;;21.54;56.78;100541.09;10501328;28;20370;-74
2023/06/24 19:18:56;;;;;;;3.50;3.30;;;;;;;21.27;58.81;100543.84;10502539;28;20448;-75
2023/06/24 19:23:58;;;;;;;5.05;4.65;;;;;;;20.88;60.53;100540.22;10483259;28;20059;-74
2023/06/24 19:29:00;;;;;;;3.63;3.40;;;;;;;20.96;60.24;100539.69;10481390;28;20071;-74
2023/06/24 19:34:01;;;;;;;3.65;3.35;;;;;;;20.88;60.43;100539.34;10501113;28;20048;-74
2023/06/24 19:39:03;;;;;;;4.50;4.20;;;;;;;21.16;59.08;100549.91;10483429;28;20119;-74
2023/06/24 19:44:06;;;;;;;6.25;4.38;;;;;;;21.01;59.75;100552.75;10483753;28;20106;-74
2023/06/24 19:49:09;;;;;;;4.78;4.07;;;;;;;20.81;60.51;100554.09;10507909;28;20039;-74
2023/06/24 19:54:12;;;;;;;5.00;4.60;;;;;;;20.45;63.04;100549.28;10509144;28;20094;-74
2023/06/24 19:59:13;;;;;;;4.60;4.30;;;;;;;20.28;63.52;100540.56;10491546;28;20492;-75
2023/06/24 20:04:15;;;;;;;4.45;4.15;;;;;;;20.25;64.24;100532.75;10509512;28;20040;-73
2023/06/24 20:09:17;;;;;;;4.80;4.43;;;;;;;20.33;63.00;100533.13;10508081;28;20032;-74
2023/06/24 20:14:19;;;;;;;5.10;3.97;;;;;;;20.14;64.24;100536.13;10508280;28;20100;-73
2023/06/24 20:19:20;;;;;;;4.97;4.57;;;;;;;20.22;63.79;100546.28;10507525;28;20041;-75
2023/06/24 20:24:25;;;;;;;4.97;4.57;;;;;;;20.07;64.60;100541.94;10507869;28;20067;-75
2023/06/24 20:29:27;;;;;;;4.65;4.30;;;;;;;19.91;66.28;100536.69;10508490;28;20040;-74
2023/06/24 20:34:29;;;;;;;4.78;4.40;;;;;;;19.83;67.29;100533.63;10507856;28;20052;-75
2023/06/24 20:39:31;;;;;;;4.82;4.45;;;;;;;19.84;67.97;100530.03;10508916;28;20401;-75
2023/06/24 20:44:33;;;;;;;9.18;6.00;;;;;;;19.85;67.09;100529.94;10507839;28;20051;-74
2023/06/24 20:49:35;;;;;;;9.93;9.13;;;;;;;19.60;68.40;100532.34;10506027;28;20048;-74
2023/06/24 20:54:36;;;;;;;9.27;8.57;;;;;;;19.70;68.19;100530.00;10506305;28;20060;-75
2023/06/24 20:59:38;;;;;;;9.45;8.65;;;;;;;19.26;70.83;100526.44;10503978;28;20058;-74
2023/06/24 21:04:40;;;;;;;10.30;9.50;;;;;;;19.10;75.03;100529.13;10505427;28;20040;-74
2023/06/24 21:09:42;;;;;;;9.40;8.82;;;;;;;19.08;74.55;100528.38;10504657;28;20044;-74
2023/06/24 21:14:43;;;;;;;9.05;8.35;;;;;;;18.86;75.70;100531.44;10487650;28;20044;-75
2023/06/24 21:19:45;;;;;;;9.63;8.85;;;;;;;18.78;77.79;100532.84;10471134;28;20071;-75
2023/06/24 21:24:47;;;;;;;8.70;8.05;;;;;;;18.76;78.08;100535.56;10504469;28;20098;-75
2023/06/24 21:29:49;;;;;;;7.38;6.88;;;;;;;18.82;78.93;100524.59;10486159;28;20060;-75
2023/06/24 21:34:51;;;;;;;7.13;6.45;;;;;;;18.48;79.97;100520.28;10504041;28;20055;-75
2023/06/24 21:39:52;;;;;;;6.22;5.82;;;;;;;18.39;81.02;100532.31;10504257;28;20044;-74
2023/06/24 21:44:54;;;;;;;7.28;6.68;;;;;;;18.48;80.14;100535.41;10504371;28;20090;-75
2023/06/24 21:49:56;;;;;;;7.32;6.70;;;;;;;18.17;81.74;100533.59;10505605;28;20098;-74
2023/06/24 21:54:58;;;;;;;8.90;8.20;;;;;;;18.16;82.39;100532.75;10505868;28;20036;-74
2023/06/24 22:00:00;;;;;;;16.35;15.05;;;;;;;18.17;83.06;100536.28;10505069;28;20044;-75
2023/06/24 22:05:01;;;;;;;20.90;18.77;;;;;;;18.24;81.41;100533.19;10487777;28;20052;-74
2023/06/24 22:10:03;;;;;;;21.25;19.40;;;;;;;18.10;82.19;100549.03;10503206;28;20123;-74
2023/06/24 22:15:06;;;;;;;20.33;18.52;;;;;;;17.78;85.14;100542.81;10504294;28;20048;-74
2023/06/24 22:20:08;;;;;;;17.02;15.65;;;;;;;17.56;87.42;100545.72;10485934;28;20109;-74
2023/06/24 22:25:10;;;;;;;16.15;15.02;;;;;;;17.45;89.73;100540.97;10504155;28;20048;-75
2023/06/24 22:30:12;;;;;;;15.48;14.02;;;;;;;17.60;87.55;100547.28;10504206;28;20409;-75
2023/06/24 22:35:14;;;;;;;14.02;13.02;;;;;;;17.51;89.14;100547.75;10485044;28;20059;-74
2023/06/24 22:40:16;;;;;;;14.18;13.07;;;;;;;17.34;92.16;100548.63;10503537;28;20060;-74
2023/06/24 22:45:18;;;;;;;14.68;13.60;;;;;;;17.34;91.66;100551.28;10484276;28;20048;-75
2023/06/24 22:50:20;;;;;;;16.73;15.52;;;;;;;17.31;91.62;100552.31;10501702;28;20451;-73
2023/06/24 22:55:21;;;;;;;17.15;15.95;;;;;;;17.23;92.13;100546.53;10501052;28;20045;-72
2023/06/24 23:00:23;;;;;;;17.08;15.98;;;;;;;17.23;91.91;100545.69;10502314;28;20036;-73